sensor_id;sensor_type;location;lat;lon;timestamp;P1;durP1;ratioP1;P2;durP2;ratioP2
51660;SDS011;37741;49.748;8.490;2023-04-30T00:02:09;8.57;;;7.32;;
51660;SDS011;37741;49.748;8.490;2023-04-30T00:04:35;7.22;;;6.53;;
51660;SDS011;37741;49.748;8.490;2023-04-30T00:07:00;8.38;;;7.35;;
51660;SDS011;37741;49.748;8.490;2023-04-30T00:09:26;9.20;;;8.00;;
51660;SDS011;37741;49.748;8.490;2023-04-30T00:11:52;8.02;;;7.22;;
51660;SDS011;37741;49.748;8.490;2023-04-30T00:14:17;8.10;;;7.30;;
51660;SDS011;37741;49.748;8.490;2023-04-30T00:16:43;7.72;;;6.93;;
51660;SDS011;37741;49.748;8.490;2023-04-30T00:19:08;9.40;;;7.65;;
51660;SDS011;37741;49.748;8.490;2023-04-30T00:21:34;9.70;;;7.43;;
51660;SDS011;37741;49.748;8.490;2023-04-30T00:24:00;9.80;;;8.23;;
51660;SDS011;37741;49.748;8.490;2023-04-30T00:26:26;8.68;;;7.78;;
51660;SDS011;37741;49.748;8.490;2023-04-30T00:28:51;9.73;;;7.80;;
51660;SDS011;37741;49.748;8.490;2023-04-30T00:31:17;9.15;;;7.95;;
51660;SDS011;37741;49.748;8.490;2023-04-30T00:33:43;8.70;;;7.65;;
51660;SDS011;37741;49.748;8.490;2023-04-30T00:36:08;7.97;;;7.18;;
51660;SDS011;37741;49.748;8.490;2023-04-30T00:38:34;8.95;;;8.05;;
51660;SDS011;37741;49.748;8.490;2023-04-30T00:41:00;8.30;;;7.50;;
51660;SDS011;37741;49.748;8.490;2023-04-30T00:43:25;8.32;;;7.53;;
51660;SDS011;37741;49.748;8.490;2023-04-30T00:45:51;9.43;;;8.02;;
51660;SDS011;37741;49.748;8.490;2023-04-30T00:48:17;8.77;;;7.88;;
51660;SDS011;37741;49.748;8.490;2023-04-30T00:50:42;8.25;;;7.45;;
51660;SDS011;37741;49.748;8.490;2023-04-30T00:53:12;9.15;;;8.25;;
51660;SDS011;37741;49.748;8.490;2023-04-30T00:55:38;8.25;;;7.45;;
51660;SDS011;37741;49.748;8.490;2023-04-30T00:58:05;8.43;;;7.53;;
51660;SDS011;37741;49.748;8.490;2023-04-30T01:00:31;9.80;;;7.90;;
51660;SDS011;37741;49.748;8.490;2023-04-30T01:02:58;9.32;;;8.25;;
51660;SDS011;37741;49.748;8.490;2023-04-30T01:05:24;9.48;;;7.63;;
51660;SDS011;37741;49.748;8.490;2023-04-30T01:07:50;11.95;;;8.50;;
51660;SDS011;37741;49.748;8.490;2023-04-30T01:10:17;9.23;;;8.20;;
51660;SDS011;37741;49.748;8.490;2023-04-30T01:15:36;9.40;;;8.40;;
51660;SDS011;37741;49.748;8.490;2023-04-30T01:18:16;9.27;;;8.38;;
51660;SDS011;37741;49.748;8.490;2023-04-30T01:20:52;9.43;;;8.00;;
51660;SDS011;37741;49.748;8.490;2023-04-30T01:25:59;8.38;;;7.50;;
51660;SDS011;37741;49.748;8.490;2023-04-30T01:28:44;8.50;;;7.63;;
51660;SDS011;37741;49.748;8.490;2023-04-30T01:31:17;10.25;;;8.27;;
51660;SDS011;37741;49.748;8.490;2023-04-30T01:33:43;9.82;;;8.80;;
51660;SDS011;37741;49.748;8.490;2023-04-30T01:41:32;10.27;;;7.82;;
51660;SDS011;37741;49.748;8.490;2023-04-30T01:44:23;10.07;;;8.00;;
51660;SDS011;37741;49.748;8.490;2023-04-30T01:47:06;8.80;;;7.90;;
51660;SDS011;37741;49.748;8.490;2023-04-30T01:52:51;9.15;;;7.63;;
51660;SDS011;37741;49.748;8.490;2023-04-30T01:55:34;8.98;;;8.07;;
51660;SDS011;37741;49.748;8.490;2023-04-30T01:58:05;10.30;;;8.60;;
51660;SDS011;37741;49.748;8.490;2023-04-30T02:00:34;9.68;;;8.27;;
51660;SDS011;37741;49.748;8.490;2023-04-30T02:02:59;9.90;;;8.90;;
51660;SDS011;37741;49.748;8.490;2023-04-30T02:05:25;8.57;;;7.65;;
51660;SDS011;37741;49.748;8.490;2023-04-30T02:07:51;10.50;;;9.00;;
51660;SDS011;37741;49.748;8.490;2023-04-30T02:10:19;10.32;;;8.30;;
51660;SDS011;37741;49.748;8.490;2023-04-30T02:12:46;10.15;;;9.15;;
51660;SDS011;37741;49.748;8.490;2023-04-30T02:15:12;9.90;;;8.30;;
51660;SDS011;37741;49.748;8.490;2023-04-30T02:17:38;10.95;;;8.60;;
51660;SDS011;37741;49.748;8.490;2023-04-30T02:20:03;9.05;;;8.10;;
51660;SDS011;37741;49.748;8.490;2023-04-30T02:22:29;9.93;;;8.35;;
51660;SDS011;37741;49.748;8.490;2023-04-30T02:24:55;9.07;;;8.18;;
51660;SDS011;37741;49.748;8.490;2023-04-30T02:27:21;9.73;;;8.68;;
51660;SDS011;37741;49.748;8.490;2023-04-30T02:29:49;9.02;;;8.13;;
51660;SDS011;37741;49.748;8.490;2023-04-30T02:32:14;8.82;;;8.00;;
51660;SDS011;37741;49.748;8.490;2023-04-30T02:34:40;10.65;;;8.77;;
51660;SDS011;37741;49.748;8.490;2023-04-30T02:37:06;8.95;;;7.85;;
51660;SDS011;37741;49.748;8.490;2023-04-30T02:39:32;9.50;;;8.30;;
51660;SDS011;37741;49.748;8.490;2023-04-30T02:41:58;10.30;;;8.50;;
51660;SDS011;37741;49.748;8.490;2023-04-30T02:44:24;9.63;;;8.60;;
51660;SDS011;37741;49.748;8.490;2023-04-30T02:46:50;10.98;;;8.45;;
51660;SDS011;37741;49.748;8.490;2023-04-30T02:49:15;9.98;;;8.75;;
51660;SDS011;37741;49.748;8.490;2023-04-30T02:51:41;9.43;;;8.43;;
51660;SDS011;37741;49.748;8.490;2023-04-30T02:54:06;9.93;;;8.93;;
51660;SDS011;37741;49.748;8.490;2023-04-30T02:56:32;9.73;;;8.52;;
51660;SDS011;37741;49.748;8.490;2023-04-30T02:58:58;9.00;;;8.02;;
51660;SDS011;37741;49.748;8.490;2023-04-30T03:01:24;8.70;;;7.80;;
51660;SDS011;37741;49.748;8.490;2023-04-30T03:03:49;11.90;;;9.30;;
51660;SDS011;37741;49.748;8.490;2023-04-30T03:06:15;11.02;;;8.63;;
51660;SDS011;37741;49.748;8.490;2023-04-30T03:08:41;9.25;;;8.25;;
51660;SDS011;37741;49.748;8.490;2023-04-30T03:11:06;10.85;;;8.52;;
51660;SDS011;37741;49.748;8.490;2023-04-30T03:13:32;9.93;;;8.55;;
51660;SDS011;37741;49.748;8.490;2023-04-30T03:15:58;12.32;;;10.20;;
51660;SDS011;37741;49.748;8.490;2023-04-30T03:18:24;12.38;;;9.25;;
51660;SDS011;37741;49.748;8.490;2023-04-30T03:20:53;10.30;;;8.55;;
51660;SDS011;37741;49.748;8.490;2023-04-30T03:23:19;11.77;;;9.10;;
51660;SDS011;37741;49.748;8.490;2023-04-30T03:25:44;10.23;;;9.20;;
51660;SDS011;37741;49.748;8.490;2023-04-30T03:28:10;11.23;;;9.15;;
51660;SDS011;37741;49.748;8.490;2023-04-30T03:30:35;9.40;;;8.50;;
51660;SDS011;37741;49.748;8.490;2023-04-30T03:33:02;9.32;;;8.18;;
51660;SDS011;37741;49.748;8.490;2023-04-30T03:35:30;10.95;;;9.85;;
51660;SDS011;37741;49.748;8.490;2023-04-30T03:37:57;10.98;;;9.40;;
51660;SDS011;37741;49.748;8.490;2023-04-30T03:40:22;9.68;;;8.45;;
51660;SDS011;37741;49.748;8.490;2023-04-30T03:42:48;10.38;;;9.32;;
51660;SDS011;37741;49.748;8.490;2023-04-30T03:45:13;11.43;;;8.27;;
51660;SDS011;37741;49.748;8.490;2023-04-30T03:47:39;9.82;;;8.77;;
51660;SDS011;37741;49.748;8.490;2023-04-30T03:50:06;10.68;;;9.57;;
51660;SDS011;37741;49.748;8.490;2023-04-30T03:52:32;11.75;;;9.48;;
51660;SDS011;37741;49.748;8.490;2023-04-30T03:54:58;10.27;;;9.20;;
51660;SDS011;37741;49.748;8.490;2023-04-30T03:57:24;10.05;;;9.05;;
51660;SDS011;37741;49.748;8.490;2023-04-30T03:59:50;10.25;;;9.18;;
51660;SDS011;37741;49.748;8.490;2023-04-30T04:02:15;10.18;;;9.05;;
51660;SDS011;37741;49.748;8.490;2023-04-30T04:04:41;10.55;;;9.35;;
51660;SDS011;37741;49.748;8.490;2023-04-30T04:07:07;9.88;;;8.85;;
51660;SDS011;37741;49.748;8.490;2023-04-30T04:09:35;11.68;;;9.70;;
51660;SDS011;37741;49.748;8.490;2023-04-30T04:12:01;10.02;;;9.02;;
51660;SDS011;37741;49.748;8.490;2023-04-30T04:14:26;10.25;;;9.15;;
51660;SDS011;37741;49.748;8.490;2023-04-30T04:16:52;12.52;;;10.98;;
51660;SDS011;37741;49.748;8.490;2023-04-30T04:19:18;10.98;;;9.57;;
51660;SDS011;37741;49.748;8.490;2023-04-30T04:21:43;10.93;;;9.82;;
51660;SDS011;37741;49.748;8.490;2023-04-30T04:24:09;10.85;;;9.63;;
51660;SDS011;37741;49.748;8.490;2023-04-30T04:26:35;11.02;;;9.88;;
51660;SDS011;37741;49.748;8.490;2023-04-30T04:29:02;11.50;;;10.23;;
51660;SDS011;37741;49.748;8.490;2023-04-30T04:31:29;11.82;;;10.23;;
51660;SDS011;37741;49.748;8.490;2023-04-30T04:33:55;11.20;;;10.05;;
51660;SDS011;37741;49.748;8.490;2023-04-30T04:36:23;11.15;;;9.25;;
51660;SDS011;37741;49.748;8.490;2023-04-30T04:38:51;12.15;;;10.05;;
51660;SDS011;37741;49.748;8.490;2023-04-30T04:41:17;11.50;;;9.85;;
51660;SDS011;37741;49.748;8.490;2023-04-30T04:43:43;13.32;;;10.18;;
51660;SDS011;37741;49.748;8.490;2023-04-30T04:46:08;10.45;;;9.40;;
51660;SDS011;37741;49.748;8.490;2023-04-30T04:48:34;11.95;;;10.00;;
51660;SDS011;37741;49.748;8.490;2023-04-30T04:51:00;12.50;;;10.05;;
51660;SDS011;37741;49.748;8.490;2023-04-30T04:53:25;11.45;;;10.20;;
51660;SDS011;37741;49.748;8.490;2023-04-30T04:55:51;11.80;;;10.50;;
51660;SDS011;37741;49.748;8.490;2023-04-30T04:58:16;11.68;;;9.90;;
51660;SDS011;37741;49.748;8.490;2023-04-30T05:00:44;11.32;;;10.13;;
51660;SDS011;37741;49.748;8.490;2023-04-30T05:03:10;12.65;;;10.95;;
51660;SDS011;37741;49.748;8.490;2023-04-30T05:05:36;11.35;;;9.50;;
51660;SDS011;37741;49.748;8.490;2023-04-30T05:08:01;11.75;;;9.90;;
51660;SDS011;37741;49.748;8.490;2023-04-30T05:10:27;12.18;;;10.13;;
51660;SDS011;37741;49.748;8.490;2023-04-30T05:12:53;12.27;;;10.82;;
51660;SDS011;37741;49.748;8.490;2023-04-30T05:15:18;12.25;;;9.90;;
51660;SDS011;37741;49.748;8.490;2023-04-30T05:17:44;14.07;;;10.27;;
51660;SDS011;37741;49.748;8.490;2023-04-30T05:20:10;11.93;;;10.55;;
51660;SDS011;37741;49.748;8.490;2023-04-30T05:22:36;11.90;;;10.38;;
51660;SDS011;37741;49.748;8.490;2023-04-30T05:25:02;12.23;;;10.07;;
51660;SDS011;37741;49.748;8.490;2023-04-30T05:27:28;12.18;;;10.43;;
51660;SDS011;37741;49.748;8.490;2023-04-30T05:29:54;11.48;;;10.32;;
51660;SDS011;37741;49.748;8.490;2023-04-30T05:32:21;12.48;;;9.20;;
51660;SDS011;37741;49.748;8.490;2023-04-30T05:34:46;11.70;;;10.52;;
51660;SDS011;37741;49.748;8.490;2023-04-30T05:37:12;11.13;;;9.93;;
51660;SDS011;37741;49.748;8.490;2023-04-30T05:39:38;11.63;;;9.88;;
51660;SDS011;37741;49.748;8.490;2023-04-30T05:42:04;12.05;;;10.85;;
51660;SDS011;37741;49.748;8.490;2023-04-30T05:44:30;12.00;;;10.63;;
51660;SDS011;37741;49.748;8.490;2023-04-30T05:46:55;11.30;;;9.82;;
51660;SDS011;37741;49.748;8.490;2023-04-30T05:49:21;11.00;;;9.63;;
51660;SDS011;37741;49.748;8.490;2023-04-30T05:51:47;10.70;;;9.32;;
51660;SDS011;37741;49.748;8.490;2023-04-30T05:54:12;12.27;;;9.35;;
51660;SDS011;37741;49.748;8.490;2023-04-30T05:56:38;11.75;;;9.55;;
51660;SDS011;37741;49.748;8.490;2023-04-30T05:59:03;12.60;;;9.95;;
51660;SDS011;37741;49.748;8.490;2023-04-30T06:01:29;10.82;;;9.57;;
51660;SDS011;37741;49.748;8.490;2023-04-30T06:03:55;11.77;;;10.23;;
51660;SDS011;37741;49.748;8.490;2023-04-30T06:06:20;10.98;;;9.75;;
51660;SDS011;37741;49.748;8.490;2023-04-30T06:08:46;10.95;;;9.85;;
51660;SDS011;37741;49.748;8.490;2023-04-30T06:11:11;13.10;;;9.82;;
51660;SDS011;37741;49.748;8.490;2023-04-30T06:13:37;12.15;;;10.85;;
51660;SDS011;37741;49.748;8.490;2023-04-30T06:16:04;10.77;;;9.68;;
51660;SDS011;37741;49.748;8.490;2023-04-30T06:18:30;13.70;;;10.02;;
51660;SDS011;37741;49.748;8.490;2023-04-30T06:20:56;11.10;;;9.88;;
51660;SDS011;37741;49.748;8.490;2023-04-30T06:23:21;11.00;;;9.85;;
51660;SDS011;37741;49.748;8.490;2023-04-30T06:25:47;11.80;;;9.95;;
51660;SDS011;37741;49.748;8.490;2023-04-30T06:28:13;12.20;;;9.13;;
51660;SDS011;37741;49.748;8.490;2023-04-30T06:30:39;10.45;;;9.23;;
51660;SDS011;37741;49.748;8.490;2023-04-30T06:33:05;10.25;;;9.13;;
51660;SDS011;37741;49.748;8.490;2023-04-30T06:35:30;11.20;;;9.30;;
51660;SDS011;37741;49.748;8.490;2023-04-30T06:37:56;11.50;;;10.30;;
51660;SDS011;37741;49.748;8.490;2023-04-30T06:40:22;11.02;;;9.02;;
51660;SDS011;37741;49.748;8.490;2023-04-30T06:42:48;10.55;;;9.45;;
51660;SDS011;37741;49.748;8.490;2023-04-30T06:45:13;10.73;;;9.13;;
51660;SDS011;37741;49.748;8.490;2023-04-30T06:47:39;10.45;;;8.23;;
51660;SDS011;37741;49.748;8.490;2023-04-30T06:50:06;11.88;;;9.10;;
51660;SDS011;37741;49.748;8.490;2023-04-30T06:52:32;10.18;;;8.80;;
51660;SDS011;37741;49.748;8.490;2023-04-30T06:54:58;10.57;;;8.38;;
51660;SDS011;37741;49.748;8.490;2023-04-30T06:57:24;10.95;;;8.68;;
51660;SDS011;37741;49.748;8.490;2023-04-30T06:59:51;9.70;;;8.15;;
51660;SDS011;37741;49.748;8.490;2023-04-30T07:02:17;12.43;;;8.15;;
51660;SDS011;37741;49.748;8.490;2023-04-30T07:04:42;9.70;;;7.13;;
51660;SDS011;37741;49.748;8.490;2023-04-30T07:07:08;9.25;;;7.93;;
51660;SDS011;37741;49.748;8.490;2023-04-30T07:09:34;9.02;;;8.02;;
51660;SDS011;37741;49.748;8.490;2023-04-30T07:12:00;8.80;;;7.53;;
51660;SDS011;37741;49.748;8.490;2023-04-30T07:14:26;8.45;;;7.63;;
51660;SDS011;37741;49.748;8.490;2023-04-30T07:16:52;9.70;;;7.47;;
51660;SDS011;37741;49.748;8.490;2023-04-30T07:19:17;8.98;;;8.07;;
51660;SDS011;37741;49.748;8.490;2023-04-30T07:21:43;8.18;;;7.10;;
51660;SDS011;37741;49.748;8.490;2023-04-30T07:24:09;8.60;;;7.05;;
51660;SDS011;37741;49.748;8.490;2023-04-30T07:26:34;8.50;;;7.15;;
51660;SDS011;37741;49.748;8.490;2023-04-30T07:29:00;7.70;;;6.43;;
51660;SDS011;37741;49.748;8.490;2023-04-30T07:31:27;7.88;;;6.80;;
51660;SDS011;37741;49.748;8.490;2023-04-30T07:33:53;8.48;;;6.45;;
51660;SDS011;37741;49.748;8.490;2023-04-30T07:36:19;7.75;;;6.30;;
51660;SDS011;37741;49.748;8.490;2023-04-30T07:38:46;7.18;;;6.43;;
51660;SDS011;37741;49.748;8.490;2023-04-30T07:41:12;7.07;;;6.38;;
51660;SDS011;37741;49.748;8.490;2023-04-30T07:43:38;8.07;;;6.75;;
51660;SDS011;37741;49.748;8.490;2023-04-30T07:46:03;9.88;;;6.57;;
51660;SDS011;37741;49.748;8.490;2023-04-30T07:48:29;8.60;;;5.78;;
51660;SDS011;37741;49.748;8.490;2023-04-30T07:50:55;7.20;;;5.80;;
51660;SDS011;37741;49.748;8.490;2023-04-30T07:53:24;6.95;;;5.20;;
51660;SDS011;37741;49.748;8.490;2023-04-30T07:55:50;6.82;;;5.30;;
51660;SDS011;37741;49.748;8.490;2023-04-30T07:58:16;6.00;;;5.40;;
51660;SDS011;37741;49.748;8.490;2023-04-30T08:00:41;7.63;;;5.72;;
51660;SDS011;37741;49.748;8.490;2023-04-30T08:03:07;5.25;;;4.13;;
51660;SDS011;37741;49.748;8.490;2023-04-30T08:05:32;6.10;;;5.45;;
51660;SDS011;37741;49.748;8.490;2023-04-30T08:07:58;6.43;;;5.40;;
51660;SDS011;37741;49.748;8.490;2023-04-30T08:10:25;6.28;;;4.57;;
51660;SDS011;37741;49.748;8.490;2023-04-30T08:12:50;5.32;;;4.68;;
51660;SDS011;37741;49.748;8.490;2023-04-30T08:15:17;6.57;;;4.13;;
51660;SDS011;37741;49.748;8.490;2023-04-30T08:17:47;7.30;;;5.03;;
51660;SDS011;37741;49.748;8.490;2023-04-30T08:20:16;6.45;;;4.65;;
51660;SDS011;37741;49.748;8.490;2023-04-30T08:22:42;6.13;;;4.53;;
51660;SDS011;37741;49.748;8.490;2023-04-30T08:25:11;8.50;;;5.65;;
51660;SDS011;37741;49.748;8.490;2023-04-30T08:27:37;6.22;;;4.95;;
51660;SDS011;37741;49.748;8.490;2023-04-30T08:30:04;6.22;;;4.88;;
51660;SDS011;37741;49.748;8.490;2023-04-30T08:32:33;6.20;;;4.57;;
51660;SDS011;37741;49.748;8.490;2023-04-30T08:35:00;7.90;;;4.50;;
51660;SDS011;37741;49.748;8.490;2023-04-30T08:37:26;5.88;;;4.43;;
51660;SDS011;37741;49.748;8.490;2023-04-30T08:39:52;5.03;;;4.50;;
51660;SDS011;37741;49.748;8.490;2023-04-30T08:42:18;8.18;;;4.55;;
51660;SDS011;37741;49.748;8.490;2023-04-30T08:44:48;4.50;;;4.05;;
51660;SDS011;37741;49.748;8.490;2023-04-30T08:47:14;5.90;;;5.10;;
51660;SDS011;37741;49.748;8.490;2023-04-30T08:49:42;5.55;;;4.50;;
51660;SDS011;37741;49.748;8.490;2023-04-30T08:52:08;9.95;;;4.53;;
51660;SDS011;37741;49.748;8.490;2023-04-30T08:54:35;5.25;;;4.25;;
51660;SDS011;37741;49.748;8.490;2023-04-30T08:57:01;5.70;;;4.65;;
51660;SDS011;37741;49.748;8.490;2023-04-30T08:59:28;5.75;;;4.22;;
51660;SDS011;37741;49.748;8.490;2023-04-30T09:01:54;4.97;;;3.67;;
51660;SDS011;37741;49.748;8.490;2023-04-30T09:04:20;5.72;;;3.90;;
51660;SDS011;37741;49.748;8.490;2023-04-30T09:06:46;5.22;;;3.83;;
51660;SDS011;37741;49.748;8.490;2023-04-30T09:09:12;6.47;;;4.20;;
51660;SDS011;37741;49.748;8.490;2023-04-30T09:11:39;4.75;;;3.47;;
51660;SDS011;37741;49.748;8.490;2023-04-30T09:14:06;5.60;;;3.60;;
51660;SDS011;37741;49.748;8.490;2023-04-30T09:19:24;4.97;;;3.55;;
51660;SDS011;37741;49.748;8.490;2023-04-30T09:21:50;5.13;;;3.60;;
51660;SDS011;37741;49.748;8.490;2023-04-30T09:24:16;4.82;;;3.58;;
51660;SDS011;37741;49.748;8.490;2023-04-30T09:26:42;4.70;;;3.15;;
51660;SDS011;37741;49.748;8.490;2023-04-30T09:29:08;4.60;;;3.00;;
51660;SDS011;37741;49.748;8.490;2023-04-30T09:31:34;3.92;;;2.72;;
51660;SDS011;37741;49.748;8.490;2023-04-30T09:34:01;3.70;;;2.85;;
51660;SDS011;37741;49.748;8.490;2023-04-30T09:36:28;6.50;;;2.80;;
51660;SDS011;37741;49.748;8.490;2023-04-30T09:38:54;4.60;;;2.60;;
51660;SDS011;37741;49.748;8.490;2023-04-30T09:41:24;4.47;;;2.90;;
51660;SDS011;37741;49.748;8.490;2023-04-30T09:43:52;5.13;;;2.67;;
51660;SDS011;37741;49.748;8.490;2023-04-30T09:46:18;5.03;;;2.70;;
51660;SDS011;37741;49.748;8.490;2023-04-30T09:48:45;3.72;;;2.33;;
51660;SDS011;37741;49.748;8.490;2023-04-30T09:51:10;3.45;;;2.35;;
51660;SDS011;37741;49.748;8.490;2023-04-30T09:53:36;3.97;;;1.95;;
51660;SDS011;37741;49.748;8.490;2023-04-30T09:56:04;2.95;;;2.05;;
51660;SDS011;37741;49.748;8.490;2023-04-30T09:58:32;3.67;;;2.10;;
51660;SDS011;37741;49.748;8.490;2023-04-30T10:01:01;3.55;;;2.20;;
51660;SDS011;37741;49.748;8.490;2023-04-30T10:03:31;3.67;;;2.30;;
51660;SDS011;37741;49.748;8.490;2023-04-30T10:05:57;4.15;;;1.65;;
51660;SDS011;37741;49.748;8.490;2023-04-30T10:08:25;3.08;;;2.45;;
51660;SDS011;37741;49.748;8.490;2023-04-30T10:10:57;2.60;;;1.70;;
51660;SDS011;37741;49.748;8.490;2023-04-30T10:13:28;2.63;;;1.48;;
51660;SDS011;37741;49.748;8.490;2023-04-30T10:16:08;3.65;;;1.52;;
51660;SDS011;37741;49.748;8.490;2023-04-30T10:18:42;3.25;;;1.88;;
51660;SDS011;37741;49.748;8.490;2023-04-30T10:21:11;3.28;;;1.73;;
51660;SDS011;37741;49.748;8.490;2023-04-30T10:23:38;2.55;;;1.15;;
51660;SDS011;37741;49.748;8.490;2023-04-30T10:26:07;2.80;;;1.70;;
51660;SDS011;37741;49.748;8.490;2023-04-30T10:28:36;4.10;;;1.58;;
51660;SDS011;37741;49.748;8.490;2023-04-30T10:31:02;2.88;;;1.40;;
51660;SDS011;37741;49.748;8.490;2023-04-30T10:36:33;3.08;;;1.40;;
51660;SDS011;37741;49.748;8.490;2023-04-30T10:39:05;4.55;;;1.98;;
51660;SDS011;37741;49.748;8.490;2023-04-30T10:41:31;2.40;;;1.40;;
51660;SDS011;37741;49.748;8.490;2023-04-30T10:43:58;2.58;;;1.27;;
51660;SDS011;37741;49.748;8.490;2023-04-30T10:46:26;3.20;;;1.40;;
51660;SDS011;37741;49.748;8.490;2023-04-30T10:48:52;4.60;;;1.60;;
51660;SDS011;37741;49.748;8.490;2023-04-30T10:51:19;1.92;;;1.00;;
51660;SDS011;37741;49.748;8.490;2023-04-30T10:53:46;1.77;;;0.98;;
51660;SDS011;37741;49.748;8.490;2023-04-30T10:56:16;2.53;;;1.17;;
51660;SDS011;37741;49.748;8.490;2023-04-30T10:58:57;3.40;;;1.27;;
51660;SDS011;37741;49.748;8.490;2023-04-30T11:01:27;2.22;;;1.10;;
51660;SDS011;37741;49.748;8.490;2023-04-30T11:04:03;2.28;;;0.95;;
51660;SDS011;37741;49.748;8.490;2023-04-30T11:09:17;1.95;;;1.10;;
51660;SDS011;37741;49.748;8.490;2023-04-30T11:11:43;3.08;;;1.17;;
51660;SDS011;37741;49.748;8.490;2023-04-30T11:14:15;2.05;;;1.33;;
51660;SDS011;37741;49.748;8.490;2023-04-30T11:16:47;2.55;;;1.10;;
51660;SDS011;37741;49.748;8.490;2023-04-30T11:19:14;2.42;;;0.93;;
51660;SDS011;37741;49.748;8.490;2023-04-30T11:21:40;1.90;;;1.00;;
51660;SDS011;37741;49.748;8.490;2023-04-30T11:27:13;1.63;;;0.90;;
51660;SDS011;37741;49.748;8.490;2023-04-30T11:29:48;1.73;;;1.00;;
51660;SDS011;37741;49.748;8.490;2023-04-30T11:32:15;1.88;;;0.98;;
51660;SDS011;37741;49.748;8.490;2023-04-30T11:34:42;1.83;;;0.80;;
51660;SDS011;37741;49.748;8.490;2023-04-30T11:37:10;2.13;;;1.25;;
51660;SDS011;37741;49.748;8.490;2023-04-30T11:39:38;2.13;;;1.33;;
51660;SDS011;37741;49.748;8.490;2023-04-30T11:42:06;1.67;;;0.82;;
51660;SDS011;37741;49.748;8.490;2023-04-30T11:44:32;3.72;;;1.17;;
51660;SDS011;37741;49.748;8.490;2023-04-30T11:46:58;2.13;;;0.73;;
51660;SDS011;37741;49.748;8.490;2023-04-30T11:49:25;2.63;;;1.00;;
51660;SDS011;37741;49.748;8.490;2023-04-30T11:51:51;1.70;;;0.98;;
51660;SDS011;37741;49.748;8.490;2023-04-30T11:54:17;2.17;;;0.90;;
51660;SDS011;37741;49.748;8.490;2023-04-30T11:56:46;1.83;;;1.00;;
51660;SDS011;37741;49.748;8.490;2023-04-30T11:59:13;2.40;;;1.08;;
51660;SDS011;37741;49.748;8.490;2023-04-30T12:01:39;1.67;;;0.80;;
51660;SDS011;37741;49.748;8.490;2023-04-30T12:04:05;2.20;;;0.93;;
51660;SDS011;37741;49.748;8.490;2023-04-30T12:06:33;2.90;;;1.10;;
51660;SDS011;37741;49.748;8.490;2023-04-30T12:09:00;1.58;;;0.90;;
51660;SDS011;37741;49.748;8.490;2023-04-30T12:11:34;1.92;;;0.98;;
51660;SDS011;37741;49.748;8.490;2023-04-30T12:14:03;3.38;;;0.90;;
51660;SDS011;37741;49.748;8.490;2023-04-30T12:16:43;1.58;;;0.88;;
51660;SDS011;37741;49.748;8.490;2023-04-30T12:19:10;1.58;;;0.80;;
51660;SDS011;37741;49.748;8.490;2023-04-30T12:21:36;1.92;;;0.80;;
51660;SDS011;37741;49.748;8.490;2023-04-30T12:24:04;1.40;;;0.73;;
51660;SDS011;37741;49.748;8.490;2023-04-30T12:26:48;2.42;;;1.10;;
51660;SDS011;37741;49.748;8.490;2023-04-30T12:29:17;2.20;;;1.20;;
51660;SDS011;37741;49.748;8.490;2023-04-30T12:31:43;2.15;;;1.38;;
51660;SDS011;37741;49.748;8.490;2023-04-30T12:34:11;2.80;;;1.58;;
51660;SDS011;37741;49.748;8.490;2023-04-30T12:36:38;4.25;;;1.77;;
51660;SDS011;37741;49.748;8.490;2023-04-30T12:39:07;3.03;;;1.80;;
51660;SDS011;37741;49.748;8.490;2023-04-30T12:41:47;2.13;;;1.33;;
51660;SDS011;37741;49.748;8.490;2023-04-30T12:44:20;2.25;;;1.50;;
51660;SDS011;37741;49.748;8.490;2023-04-30T12:46:52;1.90;;;1.25;;
51660;SDS011;37741;49.748;8.490;2023-04-30T12:51:55;2.60;;;1.30;;
51660;SDS011;37741;49.748;8.490;2023-04-30T12:54:29;3.05;;;1.38;;
51660;SDS011;37741;49.748;8.490;2023-04-30T12:59:33;1.80;;;1.10;;
51660;SDS011;37741;49.748;8.490;2023-04-30T13:02:07;2.08;;;1.05;;
51660;SDS011;37741;49.748;8.490;2023-04-30T13:04:34;2.85;;;1.50;;
51660;SDS011;37741;49.748;8.490;2023-04-30T13:07:00;2.30;;;1.13;;
51660;SDS011;37741;49.748;8.490;2023-04-30T13:09:26;2.40;;;1.38;;
51660;SDS011;37741;49.748;8.490;2023-04-30T13:11:52;2.60;;;1.20;;
51660;SDS011;37741;49.748;8.490;2023-04-30T13:14:18;1.73;;;0.93;;
51660;SDS011;37741;49.748;8.490;2023-04-30T13:16:43;2.25;;;1.15;;
51660;SDS011;37741;49.748;8.490;2023-04-30T13:19:09;1.92;;;0.90;;
51660;SDS011;37741;49.748;8.490;2023-04-30T13:21:37;2.00;;;1.10;;
51660;SDS011;37741;49.748;8.490;2023-04-30T13:24:02;1.98;;;1.15;;
51660;SDS011;37741;49.748;8.490;2023-04-30T13:26:28;2.55;;;1.45;;
51660;SDS011;37741;49.748;8.490;2023-04-30T13:28:54;1.83;;;0.88;;
51660;SDS011;37741;49.748;8.490;2023-04-30T13:31:20;1.50;;;0.90;;
51660;SDS011;37741;49.748;8.490;2023-04-30T13:33:46;2.15;;;1.02;;
51660;SDS011;37741;49.748;8.490;2023-04-30T13:36:12;1.90;;;1.00;;
51660;SDS011;37741;49.748;8.490;2023-04-30T13:38:38;1.77;;;1.00;;
51660;SDS011;37741;49.748;8.490;2023-04-30T13:41:04;2.22;;;1.23;;
51660;SDS011;37741;49.748;8.490;2023-04-30T13:43:30;1.70;;;1.02;;
51660;SDS011;37741;49.748;8.490;2023-04-30T13:45:56;3.40;;;1.48;;
51660;SDS011;37741;49.748;8.490;2023-04-30T13:48:25;1.58;;;1.00;;
51660;SDS011;37741;49.748;8.490;2023-04-30T13:50:51;1.77;;;0.90;;
51660;SDS011;37741;49.748;8.490;2023-04-30T13:53:18;3.80;;;1.17;;
51660;SDS011;37741;49.748;8.490;2023-04-30T13:55:43;2.40;;;1.10;;
51660;SDS011;37741;49.748;8.490;2023-04-30T13:58:09;2.10;;;1.10;;
51660;SDS011;37741;49.748;8.490;2023-04-30T14:00:35;2.70;;;1.27;;
51660;SDS011;37741;49.748;8.490;2023-04-30T14:03:00;2.30;;;1.10;;
51660;SDS011;37741;49.748;8.490;2023-04-30T14:05:26;2.88;;;1.30;;
51660;SDS011;37741;49.748;8.490;2023-04-30T14:07:52;1.60;;;0.80;;
51660;SDS011;37741;49.748;8.490;2023-04-30T14:10:17;2.28;;;1.40;;
51660;SDS011;37741;49.748;8.490;2023-04-30T14:12:43;1.90;;;1.13;;
51660;SDS011;37741;49.748;8.490;2023-04-30T14:15:09;1.80;;;1.00;;
51660;SDS011;37741;49.748;8.490;2023-04-30T14:17:34;2.30;;;1.20;;
51660;SDS011;37741;49.748;8.490;2023-04-30T14:20:00;5.32;;;1.20;;
51660;SDS011;37741;49.748;8.490;2023-04-30T14:22:26;4.70;;;1.63;;
51660;SDS011;37741;49.748;8.490;2023-04-30T14:24:52;1.98;;;1.15;;
51660;SDS011;37741;49.748;8.490;2023-04-30T14:27:18;2.03;;;1.38;;
51660;SDS011;37741;49.748;8.490;2023-04-30T14:29:43;1.80;;;1.10;;
51660;SDS011;37741;49.748;8.490;2023-04-30T14:32:11;4.18;;;1.52;;
51660;SDS011;37741;49.748;8.490;2023-04-30T14:34:38;3.30;;;1.30;;
51660;SDS011;37741;49.748;8.490;2023-04-30T14:37:03;3.30;;;1.10;;
51660;SDS011;37741;49.748;8.490;2023-04-30T14:39:31;2.40;;;1.30;;
51660;SDS011;37741;49.748;8.490;2023-04-30T14:41:57;3.38;;;1.35;;
51660;SDS011;37741;49.748;8.490;2023-04-30T14:44:22;2.08;;;1.33;;
51660;SDS011;37741;49.748;8.490;2023-04-30T14:46:51;1.83;;;1.08;;
51660;SDS011;37741;49.748;8.490;2023-04-30T14:49:17;3.40;;;1.65;;
51660;SDS011;37741;49.748;8.490;2023-04-30T14:51:42;2.40;;;1.23;;
51660;SDS011;37741;49.748;8.490;2023-04-30T14:54:08;3.90;;;1.20;;
51660;SDS011;37741;49.748;8.490;2023-04-30T14:56:34;2.08;;;1.10;;
51660;SDS011;37741;49.748;8.490;2023-04-30T14:58:59;1.90;;;1.05;;
51660;SDS011;37741;49.748;8.490;2023-04-30T15:01:26;2.03;;;1.02;;
51660;SDS011;37741;49.748;8.490;2023-04-30T15:03:51;2.03;;;0.98;;
51660;SDS011;37741;49.748;8.490;2023-04-30T15:06:19;3.15;;;1.42;;
51660;SDS011;37741;49.748;8.490;2023-04-30T15:08:45;2.10;;;1.10;;
51660;SDS011;37741;49.748;8.490;2023-04-30T15:11:11;1.67;;;1.05;;
51660;SDS011;37741;49.748;8.490;2023-04-30T15:13:37;2.08;;;1.20;;